createdAt,value
2018-12-17T00:02:43.855Z,100335.64
2018-12-17T00:07:57.381Z,100330.91
2018-12-17T00:13:15.905Z,100332.33
2018-12-17T00:18:29.649Z,100338.15
2018-12-17T00:23:50.686Z,100333.91
2018-12-17T00:29:01.914Z,100324.91
2018-12-17T00:34:12.826Z,100320.01
2018-12-17T00:39:25.608Z,100324.19
2018-12-17T00:44:36.577Z,100330.65
2018-12-17T00:49:48.819Z,100333.38
2018-12-17T00:55:01.644Z,100336.88
2018-12-17T01:00:12.997Z,100348.61
2018-12-17T01:05:26.532Z,100358.51
2018-12-17T01:10:37.865Z,100376.55
2018-12-17T01:15:48.887Z,100370.13
2018-12-17T01:26:44.780Z,100367.42
2018-12-17T01:31:59.987Z,100385.12
2018-12-17T01:37:11.315Z,100390.93
2018-12-17T01:42:25.195Z,100390.42
2018-12-17T01:47:36.625Z,100401.17
2018-12-17T01:52:50.994Z,100401.02
2018-12-17T01:58:01.599Z,100395.77
2018-12-17T02:03:16.573Z,100397.13
2018-12-17T02:08:27.864Z,100397.97
2018-12-17T02:14:06.302Z,100397.50
2018-12-17T02:19:19.711Z,100400.22
2018-12-17T02:24:33.708Z,100405.66
2018-12-17T02:29:44.727Z,100412.12
2018-12-17T02:34:56.220Z,100425.92
2018-12-17T02:40:11.486Z,100420.64
2018-12-17T02:45:25.868Z,100416.09
2018-12-17T02:50:37.191Z,100420.34
2018-12-17T02:55:49.006Z,100427.83
2018-12-17T03:01:00.392Z,100432.11
2018-12-17T03:06:10.667Z,100433.64
2018-12-17T03:17:19.713Z,100434.52
2018-12-17T03:22:34.695Z,100448.95
2018-12-17T03:27:47.376Z,100447.91
2018-12-17T03:32:58.577Z,100447.86
2018-12-17T03:38:09.602Z,100450.22
2018-12-17T03:43:21.733Z,100450.05
2018-12-17T03:48:33.895Z,100457.22
2018-12-17T03:56:53.303Z,100473.56
2018-12-17T04:02:10.894Z,100468.48
2018-12-17T04:07:24.309Z,100484.45
2018-12-17T04:12:35.386Z,100492.45
2018-12-17T04:17:47.154Z,100502.34
2018-12-17T04:23:02.616Z,100503.86
2018-12-17T04:28:13.540Z,100508.47
2018-12-17T04:33:24.403Z,100514.27
2018-12-17T04:38:35.853Z,100518.70
2018-12-17T04:43:50.646Z,100520.04
2018-12-17T04:49:01.752Z,100516.67
2018-12-17T04:54:12.833Z,100527.20
2018-12-17T04:59:24.775Z,100528.23
2018-12-17T05:04:35.886Z,100530.44
2018-12-17T05:09:46.820Z,100532.47
2018-12-17T05:15:00.824Z,100541.83
2018-12-17T05:20:12.334Z,100554.40
2018-12-17T05:25:23.601Z,100566.80
2018-12-17T05:30:34.679Z,100574.28
2018-12-17T05:35:45.722Z,100592.81
2018-12-17T05:40:57.329Z,100599.09
2018-12-17T05:46:08.691Z,100596.22
2018-12-17T05:51:33.035Z,100592.45
2018-12-17T05:56:44.634Z,100604.38
2018-12-17T06:07:48.333Z,100613.58
2018-12-17T06:12:59.470Z,100615.62
2018-12-17T06:18:11.829Z,100625.66
2018-12-17T06:23:22.637Z,100639.95
2018-12-17T06:28:36.548Z,100642.83
2018-12-17T06:33:48.584Z,100641.95
2018-12-17T06:38:59.658Z,100639.74
2018-12-17T06:44:10.452Z,100644.86
2018-12-17T06:47:34.594Z,100653.19
2018-12-17T06:52:45.876Z,100656.42
2018-12-17T06:57:57.717Z,100660.83
2018-12-17T07:03:08.745Z,100657.30
2018-12-17T07:08:20.203Z,100678.87
2018-12-17T07:13:30.992Z,100681.59
2018-12-17T07:18:42.423Z,100697.91
2018-12-17T07:23:52.922Z,100691.79
2018-12-17T07:29:04.323Z,100699.78
2018-12-17T07:34:15.514Z,100704.22
2018-12-17T07:39:28.329Z,100715.25
2018-12-17T07:44:39.463Z,100714.92
2018-12-17T07:49:51.637Z,100721.91
2018-12-17T07:55:02.247Z,100731.94
2018-12-17T08:00:13.780Z,100734.64
2018-12-17T08:05:24.599Z,100739.05
2018-12-17T08:10:35.851Z,100754.38
2018-12-17T08:15:46.804Z,100744.49
2018-12-17T08:21:13.835Z,100752.00
2018-12-17T08:26:24.486Z,100750.46
2018-12-17T08:31:35.710Z,100743.66
2018-12-17T08:36:48.489Z,100749.95
2018-12-17T08:42:00.765Z,100757.23
2018-12-17T08:47:11.803Z,100766.77
2018-12-17T08:52:22.613Z,100771.03
2018-12-17T08:57:37.939Z,100789.75
2018-12-17T09:02:47.669Z,100797.91
2018-12-17T09:07:59.198Z,100795.86
2018-12-17T09:13:09.869Z,100810.46
2018-12-17T09:18:21.654Z,100806.90
2018-12-17T09:25:05.807Z,100812.84
2018-12-17T09:30:18.448Z,100813.55
2018-12-17T09:35:29.620Z,100818.10
2018-12-17T09:40:40.576Z,100829.50
2018-12-17T09:45:51.577Z,100831.53
2018-12-17T09:51:03.819Z,100833.77
2018-12-17T09:56:14.683Z,100826.80
2018-12-17T10:01:25.863Z,100817.92
2018-12-17T10:06:37.001Z,100818.62
2018-12-17T10:11:49.633Z,100813.87
2018-12-17T10:17:00.646Z,100803.31
2018-12-17T10:22:12.379Z,100815.57
2018-12-17T10:27:23.401Z,100813.55
2018-12-17T10:32:34.810Z,100816.26
2018-12-17T10:37:45.584Z,100817.60
2018-12-17T10:42:56.710Z,100817.75
2018-12-17T10:48:08.369Z,100817.27
2018-12-17T10:53:19.479Z,100821.35
2018-12-17T10:58:30.814Z,100818.78
2018-12-17T11:03:56.312Z,100815.89
2018-12-17T11:09:09.738Z,100828.65
2018-12-17T11:14:20.630Z,100826.08
2018-12-17T11:19:31.677Z,100825.41
2018-12-17T11:24:42.674Z,100821.33
2018-12-17T11:29:53.584Z,100828.30
2018-12-17T11:35:03.798Z,100830.17
2018-12-17T11:40:14.795Z,100817.44
2018-12-17T11:45:26.353Z,100821.34
2018-12-17T11:50:36.750Z,100809.45
2018-12-17T11:55:48.486Z,100822.05
2018-12-17T11:58:19.344Z,100815.41
2018-12-17T12:03:40.863Z,100808.79
2018-12-17T12:08:52.297Z,100821.69
2018-12-17T12:14:02.507Z,100822.39
2018-12-17T12:19:13.892Z,100821.19
2018-12-17T12:24:24.984Z,100816.94
2018-12-17T12:29:35.795Z,100816.61
2018-12-17T12:34:48.614Z,100828.66
2018-12-17T12:39:59.857Z,100831.56
2018-12-17T12:45:11.225Z,100833.25
2018-12-17T12:50:22.622Z,100833.95
2018-12-17T12:55:33.836Z,100829.50
2018-12-17T13:00:46.028Z,100841.25
2018-12-17T13:05:56.821Z,100843.45
2018-12-17T13:11:08.054Z,100840.39
2018-12-17T13:16:19.431Z,100839.54
2018-12-17T13:21:32.664Z,100844.14
2018-12-17T13:26:51.306Z,100847.37
2018-12-17T13:32:06.698Z,100845.84
2018-12-17T13:37:51.583Z,100851.63
2018-12-17T13:43:02.860Z,100854.67
2018-12-17T13:48:14.235Z,100855.70
2018-12-17T13:53:30.205Z,100857.88
2018-12-17T13:58:42.681Z,100860.61
2018-12-17T14:03:53.981Z,100866.89
2018-12-17T14:09:05.857Z,100865.71
2018-12-17T14:14:23.411Z,100874.20
2018-12-17T14:22:38.422Z,100873.38
2018-12-17T14:27:49.825Z,100875.07
2018-12-17T14:33:00.670Z,100876.11
2018-12-17T14:38:19.994Z,100879.84
2018-12-17T14:43:31.907Z,100882.91
2018-12-17T14:48:43.460Z,100895.68
2018-12-17T14:53:56.590Z,100899.25
2018-12-17T14:59:07.905Z,100905.93
2018-12-17T15:04:18.857Z,100915.63
2018-12-17T15:09:30.575Z,100923.78
2018-12-17T15:14:41.632Z,100932.94
2018-12-17T15:17:52.574Z,100933.16
2018-12-17T15:23:02.546Z,100937.96
2018-12-17T15:28:13.825Z,100934.48
2018-12-17T15:33:25.268Z,100941.59
2018-12-17T15:38:35.594Z,100949.35
2018-12-17T15:43:46.762Z,100951.78
2018-12-17T15:48:58.888Z,100952.04
2018-12-17T15:54:12.627Z,100945.54
2018-12-17T15:59:24.305Z,100955.67
2018-12-17T16:04:34.989Z,100955.80
2018-12-17T16:09:46.653Z,100956.91
2018-12-17T16:14:57.743Z,100964.04
2018-12-17T16:20:11.039Z,100973.88
2018-12-17T16:25:35.681Z,100979.05
2018-12-17T16:30:47.560Z,100991.74
2018-12-17T16:39:26.220Z,101007.02
2018-12-17T16:47:51.616Z,101026.53
2018-12-17T16:55:04.641Z,101013.05
2018-12-17T17:00:19.341Z,101024.38
2018-12-17T17:05:30.608Z,101026.66
2018-12-17T17:19:06.679Z,101035.34
2018-12-17T17:37:17.219Z,101063.28
2018-12-17T17:42:33.514Z,101064.06
2018-12-17T17:47:46.641Z,101057.36
2018-12-17T17:52:52.996Z,101070.61
2018-12-17T17:58:04.671Z,101079.23
2018-12-17T18:03:14.952Z,101075.62
2018-12-17T18:08:25.717Z,101081.69
2018-12-17T18:13:36.741Z,101089.36
2018-12-17T18:18:50.620Z,101097.13
2018-12-17T18:24:01.661Z,101106.05
2018-12-17T18:29:13.912Z,101114.67
2018-12-17T18:34:25.009Z,101126.34
2018-12-17T18:39:36.813Z,101125.77
2018-12-17T18:44:48.296Z,101138.78
2018-12-17T18:50:01.357Z,101149.28
2018-12-17T18:55:12.779Z,101148.27
2018-12-17T19:00:27.976Z,101149.91
2018-12-17T19:05:38.522Z,101154.97
2018-12-17T19:11:12.310Z,101154.92
2018-12-17T19:16:23.774Z,101153.05
2018-12-17T19:22:01.323Z,101161.05
2018-12-17T19:27:12.836Z,101163.38
2018-12-17T19:32:24.322Z,101161.17
2018-12-17T19:37:37.501Z,101167.38
2018-12-17T19:42:52.682Z,101174.98
2018-12-17T19:48:03.652Z,101177.86
2018-12-17T19:53:22.928Z,101180.09
2018-12-17T19:58:34.591Z,101187.13
2018-12-17T20:03:45.953Z,101195.60
2018-12-17T20:08:56.717Z,101203.34
